sensor_id;sensor_type;location;lat;lon;timestamp;pressure;altitude;pressure_sealevel;temperature;humidity
67842;BME280;54642;59.126;37.876;2024-02-26T00:01:43;100736.13;;;1.14;81.84
67842;BME280;54642;59.126;37.876;2024-02-26T00:04:11;100728.41;;;1.12;82.07
67842;BME280;54642;59.126;37.876;2024-02-26T00:06:40;100735.19;;;1.12;82.11
67842;BME280;54642;59.126;37.876;2024-02-26T00:09:07;100718.72;;;1.05;81.89
67842;BME280;54642;59.126;37.876;2024-02-26T00:11:35;100715.22;;;1.03;81.93
67842;BME280;54642;59.126;37.876;2024-02-26T00:14:01;100704.88;;;1.00;81.96
67842;BME280;54642;59.126;37.876;2024-02-26T00:16:26;100733.50;;;1.12;82.10
67842;BME280;54642;59.126;37.876;2024-02-26T00:18:52;100733.47;;;1.11;82.10
67842;BME280;54642;59.126;37.876;2024-02-26T00:21:18;100709.66;;;0.92;82.13
67842;BME280;54642;59.126;37.876;2024-02-26T00:23:44;100717.63;;;1.00;82.19
67842;BME280;54642;59.126;37.876;2024-02-26T00:26:09;100739.03;;;1.02;82.14
67842;BME280;54642;59.126;37.876;2024-02-26T00:28:37;100720.94;;;0.98;82.30
67842;BME280;54642;59.126;37.876;2024-02-26T00:31:03;100738.88;;;0.99;82.51
67842;BME280;54642;59.126;37.876;2024-02-26T00:33:29;100728.06;;;0.85;82.13
67842;BME280;54642;59.126;37.876;2024-02-26T00:35:54;100752.44;;;0.98;82.21
67842;BME280;54642;59.126;37.876;2024-02-26T00:38:20;100736.00;;;0.91;81.89
67842;BME280;54642;59.126;37.876;2024-02-26T00:40:46;100741.09;;;0.91;81.95
67842;BME280;54642;59.126;37.876;2024-02-26T00:43:12;100741.81;;;0.89;82.24
67842;BME280;54642;59.126;37.876;2024-02-26T00:45:38;100750.41;;;0.91;82.10
67842;BME280;54642;59.126;37.876;2024-02-26T00:48:04;100741.81;;;0.89;82.16
67842;BME280;54642;59.126;37.876;2024-02-26T00:50:36;100713.88;;;0.72;82.33
67842;BME280;54642;59.126;37.876;2024-02-26T00:53:02;100696.53;;;0.65;82.40
67842;BME280;54642;59.126;37.876;2024-02-26T00:55:27;100729.88;;;0.88;82.21
67842;BME280;54642;59.126;37.876;2024-02-26T00:57:53;100721.00;;;0.80;82.11
67842;BME280;54642;59.126;37.876;2024-02-26T01:00:19;100726.66;;;0.92;82.01
67842;BME280;54642;59.126;37.876;2024-02-26T01:02:45;100689.81;;;0.67;82.10
67842;BME280;54642;59.126;37.876;2024-02-26T01:05:15;100678.44;;;0.59;81.89
67842;BME280;54642;59.126;37.876;2024-02-26T01:07:42;100728.28;;;0.90;81.96
67842;BME280;54642;59.126;37.876;2024-02-26T01:10:08;100739.41;;;0.92;81.88
67842;BME280;54642;59.126;37.876;2024-02-26T01:12:34;100731.84;;;0.93;81.96
67842;BME280;54642;59.126;37.876;2024-02-26T01:15:01;100716.03;;;0.83;81.83
67842;BME280;54642;59.126;37.876;2024-02-26T01:17:27;100735.78;;;0.87;81.72
67842;BME280;54642;59.126;37.876;2024-02-26T01:19:53;100706.47;;;0.79;81.81
67842;BME280;54642;59.126;37.876;2024-02-26T01:22:19;100727.38;;;0.89;81.67
67842;BME280;54642;59.126;37.876;2024-02-26T01:24:45;100729.81;;;0.86;81.80
67842;BME280;54642;59.126;37.876;2024-02-26T01:27:11;100710.78;;;0.80;81.65
67842;BME280;54642;59.126;37.876;2024-02-26T01:29:37;100723.31;;;0.75;81.81
67842;BME280;54642;59.126;37.876;2024-02-26T01:32:03;100727.56;;;0.74;81.88
67842;BME280;54642;59.126;37.876;2024-02-26T01:34:30;100684.16;;;0.55;81.76
67842;BME280;54642;59.126;37.876;2024-02-26T01:36:56;100722.63;;;0.78;81.81
67842;BME280;54642;59.126;37.876;2024-02-26T01:39:21;100733.81;;;0.81;81.75
67842;BME280;54642;59.126;37.876;2024-02-26T01:41:47;100739.53;;;0.75;81.60
67842;BME280;54642;59.126;37.876;2024-02-26T01:44:13;100732.75;;;0.76;81.42
67842;BME280;54642;59.126;37.876;2024-02-26T01:46:39;100723.94;;;0.69;81.44
67842;BME280;54642;59.126;37.876;2024-02-26T01:49:06;100716.69;;;0.59;81.57
67842;BME280;54642;59.126;37.876;2024-02-26T01:51:34;100725.69;;;0.70;81.71
67842;BME280;54642;59.126;37.876;2024-02-26T01:54:02;100706.59;;;0.62;81.50
67842;BME280;54642;59.126;37.876;2024-02-26T01:56:29;100727.56;;;0.74;81.52
67842;BME280;54642;59.126;37.876;2024-02-26T01:59:01;100719.13;;;0.75;81.05
67842;BME280;54642;59.126;37.876;2024-02-26T02:01:29;100715.88;;;0.60;81.44
67842;BME280;54642;59.126;37.876;2024-02-26T02:03:59;100712.25;;;0.74;81.24
67842;BME280;54642;59.126;37.876;2024-02-26T02:06:26;100722.38;;;0.73;81.15
67842;BME280;54642;59.126;37.876;2024-02-26T02:08:54;100695.53;;;0.62;81.16
67842;BME280;54642;59.126;37.876;2024-02-26T02:11:20;100712.00;;;0.68;80.97
67842;BME280;54642;59.126;37.876;2024-02-26T02:13:46;100710.97;;;0.65;80.77
67842;BME280;54642;59.126;37.876;2024-02-26T02:16:12;100707.41;;;0.61;81.01
67842;BME280;54642;59.126;37.876;2024-02-26T02:18:38;100680.53;;;0.50;81.13
67842;BME280;54642;59.126;37.876;2024-02-26T02:21:04;100703.25;;;0.63;81.09
67842;BME280;54642;59.126;37.876;2024-02-26T02:23:30;100705.81;;;0.63;81.02
67842;BME280;54642;59.126;37.876;2024-02-26T02:25:56;100693.84;;;0.62;80.98
67842;BME280;54642;59.126;37.876;2024-02-26T02:28:25;100675.25;;;0.45;81.03
67842;BME280;54642;59.126;37.876;2024-02-26T02:30:52;100668.31;;;0.43;80.77
67842;BME280;54642;59.126;37.876;2024-02-26T02:33:19;100684.53;;;0.45;80.84
67842;BME280;54642;59.126;37.876;2024-02-26T02:35:45;100683.75;;;0.46;80.95
67842;BME280;54642;59.126;37.876;2024-02-26T02:38:11;100692.75;;;0.57;80.75
67842;BME280;54642;59.126;37.876;2024-02-26T02:40:37;100686.44;;;0.49;80.86
67842;BME280;54642;59.126;37.876;2024-02-26T02:43:03;100693.72;;;0.59;80.97
67842;BME280;54642;59.126;37.876;2024-02-26T02:45:30;100681.28;;;0.47;80.96
67842;BME280;54642;59.126;37.876;2024-02-26T02:47:56;100703.19;;;0.62;80.77
67842;BME280;54642;59.126;37.876;2024-02-26T02:50:21;100694.38;;;0.55;80.94
67842;BME280;54642;59.126;37.876;2024-02-26T02:52:47;100701.22;;;0.56;80.78
67842;BME280;54642;59.126;37.876;2024-02-26T02:55:16;100670.00;;;0.42;80.71
67842;BME280;54642;59.126;37.876;2024-02-26T02:57:42;100695.25;;;0.55;80.75
67842;BME280;54642;59.126;37.876;2024-02-26T03:00:12;100674.41;;;0.46;80.81
67842;BME280;54642;59.126;37.876;2024-02-26T03:02:38;100649.84;;;0.29;81.07
67842;BME280;54642;59.126;37.876;2024-02-26T03:05:04;100704.56;;;0.55;81.01
67842;BME280;54642;59.126;37.876;2024-02-26T03:07:30;100701.88;;;0.52;80.81
67842;BME280;54642;59.126;37.876;2024-02-26T03:09:56;100701.84;;;0.50;80.84
67842;BME280;54642;59.126;37.876;2024-02-26T03:12:22;100698.47;;;0.51;80.74
67842;BME280;54642;59.126;37.876;2024-02-26T03:14:48;100692.34;;;0.48;80.94
67842;BME280;54642;59.126;37.876;2024-02-26T03:17:13;100692.50;;;0.51;80.78
67842;BME280;54642;59.126;37.876;2024-02-26T03:19:39;100684.78;;;0.49;80.75
67842;BME280;54642;59.126;37.876;2024-02-26T03:22:05;100699.84;;;0.45;80.73
67842;BME280;54642;59.126;37.876;2024-02-26T03:24:31;100660.75;;;0.26;80.59
67842;BME280;54642;59.126;37.876;2024-02-26T03:26:57;100682.25;;;0.31;80.57
67842;BME280;54642;59.126;37.876;2024-02-26T03:29:24;100679.78;;;0.33;80.84
67842;BME280;54642;59.126;37.876;2024-02-26T03:31:49;100684.66;;;0.28;81.00
67842;BME280;54642;59.126;37.876;2024-02-26T03:34:15;100673.31;;;0.22;81.02
67842;BME280;54642;59.126;37.876;2024-02-26T03:36:42;100685.66;;;0.32;80.60
67842;BME280;54642;59.126;37.876;2024-02-26T03:39:08;100667.41;;;0.23;80.98
67842;BME280;54642;59.126;37.876;2024-02-26T03:41:34;100693.38;;;0.33;80.77
67842;BME280;54642;59.126;37.876;2024-02-26T03:44:03;100671.41;;;0.17;80.97
67842;BME280;54642;59.126;37.876;2024-02-26T03:46:29;100674.69;;;0.15;80.99
67842;BME280;54642;59.126;37.876;2024-02-26T03:48:55;100669.38;;;0.10;80.76
67842;BME280;54642;59.126;37.876;2024-02-26T03:51:20;100671.06;;;0.10;80.78
67842;BME280;54642;59.126;37.876;2024-02-26T03:53:46;100690.25;;;0.21;80.90
67842;BME280;54642;59.126;37.876;2024-02-26T03:56:12;100693.47;;;0.17;80.90
67842;BME280;54642;59.126;37.876;2024-02-26T03:58:41;100677.09;;;0.12;81.13
67842;BME280;54642;59.126;37.876;2024-02-26T04:01:08;100689.03;;;0.13;81.15
67842;BME280;54642;59.126;37.876;2024-02-26T04:03:34;100676.31;;;0.13;80.99
67842;BME280;54642;59.126;37.876;2024-02-26T04:06:01;100688.53;;;0.20;81.19
67842;BME280;54642;59.126;37.876;2024-02-26T04:08:28;100692.72;;;0.19;81.19
67842;BME280;54642;59.126;37.876;2024-02-26T04:10:54;100661.09;;;0.14;81.12
67842;BME280;54642;59.126;37.876;2024-02-26T04:13:19;100683.63;;;0.25;81.18
67842;BME280;54642;59.126;37.876;2024-02-26T04:15:45;100630.06;;;-0.13;80.98
67842;BME280;54642;59.126;37.876;2024-02-26T04:18:12;100667.75;;;0.12;81.21
67842;BME280;54642;59.126;37.876;2024-02-26T04:20:38;100664.19;;;0.09;81.23
67842;BME280;54642;59.126;37.876;2024-02-26T04:23:04;100678.09;;;0.15;81.26
67842;BME280;54642;59.126;37.876;2024-02-26T04:25:30;100686.69;;;0.17;81.08
67842;BME280;54642;59.126;37.876;2024-02-26T04:27:56;100667.56;;;0.08;81.21
67842;BME280;54642;59.126;37.876;2024-02-26T04:30:22;100683.34;;;0.18;81.09
67842;BME280;54642;59.126;37.876;2024-02-26T04:32:48;100684.97;;;0.16;81.09
67842;BME280;54642;59.126;37.876;2024-02-26T04:35:13;100684.81;;;0.13;81.41
67842;BME280;54642;59.126;37.876;2024-02-26T04:37:39;100671.78;;;0.07;81.30
67842;BME280;54642;59.126;37.876;2024-02-26T04:40:05;100684.81;;;0.13;81.30
67842;BME280;54642;59.126;37.876;2024-02-26T04:42:31;100687.28;;;0.12;81.21
67842;BME280;54642;59.126;37.876;2024-02-26T04:44:57;100643.75;;;-0.11;81.17
67842;BME280;54642;59.126;37.876;2024-02-26T04:47:23;100679.88;;;0.16;81.49
67842;BME280;54642;59.126;37.876;2024-02-26T04:49:49;100672.31;;;0.18;81.23
67842;BME280;54642;59.126;37.876;2024-02-26T04:52:15;100632.16;;;-0.04;81.08
67842;BME280;54642;59.126;37.876;2024-02-26T04:54:41;100666.22;;;0.16;81.51
67842;BME280;54642;59.126;37.876;2024-02-26T04:57:07;100662.88;;;0.17;81.25
67842;BME280;54642;59.126;37.876;2024-02-26T04:59:32;100663.81;;;0.19;81.32
67842;BME280;54642;59.126;37.876;2024-02-26T05:01:58;100663.97;;;0.22;81.12
67842;BME280;54642;59.126;37.876;2024-02-26T05:04:24;100625.41;;;-0.04;81.15
67842;BME280;54642;59.126;37.876;2024-02-26T05:06:50;100663.81;;;0.19;81.15
67842;BME280;54642;59.126;37.876;2024-02-26T05:09:16;100665.66;;;0.22;81.16
67842;BME280;54642;59.126;37.876;2024-02-26T05:11:42;100655.84;;;0.11;81.01
67842;BME280;54642;59.126;37.876;2024-02-26T05:14:08;100660.50;;;0.20;81.09
67842;BME280;54642;59.126;37.876;2024-02-26T05:16:33;100668.34;;;0.25;81.24
67842;BME280;54642;59.126;37.876;2024-02-26T05:18:59;100651.09;;;0.19;81.16
67842;BME280;54642;59.126;37.876;2024-02-26T05:21:25;100650.31;;;0.20;81.28
67842;BME280;54642;59.126;37.876;2024-02-26T05:23:51;100629.50;;;0.11;81.22
67842;BME280;54642;59.126;37.876;2024-02-26T05:26:21;100667.88;;;0.33;81.41
67842;BME280;54642;59.126;37.876;2024-02-26T05:28:47;100671.44;;;0.37;81.43
67842;BME280;54642;59.126;37.876;2024-02-26T05:31:13;100674.16;;;0.40;81.46
67842;BME280;54642;59.126;37.876;2024-02-26T05:33:39;100665.56;;;0.38;81.28
67842;BME280;54642;59.126;37.876;2024-02-26T05:36:05;100671.69;;;0.42;81.42
67842;BME280;54642;59.126;37.876;2024-02-26T05:38:31;100639.59;;;0.27;81.15
67842;BME280;54642;59.126;37.876;2024-02-26T05:41:00;100665.75;;;0.43;81.37
67842;BME280;54642;59.126;37.876;2024-02-26T05:43:26;100643.84;;;0.28;81.35
67842;BME280;54642;59.126;37.876;2024-02-26T05:45:53;100659.88;;;0.44;81.30
67842;BME280;54642;59.126;37.876;2024-02-26T05:48:19;100646.72;;;0.34;81.58
67842;BME280;54642;59.126;37.876;2024-02-26T05:50:46;100644.16;;;0.34;81.40
67842;BME280;54642;59.126;37.876;2024-02-26T05:53:12;100670.34;;;0.50;81.52
67842;BME280;54642;59.126;37.876;2024-02-26T05:55:37;100660.19;;;0.51;81.44
67842;BME280;54642;59.126;37.876;2024-02-26T05:58:04;100649.53;;;0.41;81.39
67842;BME280;54642;59.126;37.876;2024-02-26T06:00:30;100616.50;;;0.24;81.46
67842;BME280;54642;59.126;37.876;2024-02-26T06:02:55;100659.28;;;0.49;81.33
67842;BME280;54642;59.126;37.876;2024-02-26T06:05:21;100659.28;;;0.49;81.55
67842;BME280;54642;59.126;37.876;2024-02-26T06:07:47;100635.56;;;0.32;81.38
67842;BME280;54642;59.126;37.876;2024-02-26T06:10:13;100650.47;;;0.43;81.68
67842;BME280;54642;59.126;37.876;2024-02-26T06:12:39;100653.84;;;0.42;81.49
67842;BME280;54642;59.126;37.876;2024-02-26T06:15:06;100651.34;;;0.43;81.54
67842;BME280;54642;59.126;37.876;2024-02-26T06:17:32;100625.38;;;0.32;81.47
67842;BME280;54642;59.126;37.876;2024-02-26T06:19:59;100655.97;;;0.52;81.54
67842;BME280;54642;59.126;37.876;2024-02-26T06:22:25;100640.75;;;0.53;81.30
67842;BME280;54642;59.126;37.876;2024-02-26T06:24:51;100647.38;;;0.50;81.41
67842;BME280;54642;59.126;37.876;2024-02-26T06:27:17;100641.50;;;0.51;81.23
67842;BME280;54642;59.126;37.876;2024-02-26T06:29:43;100649.94;;;0.50;81.26
67842;BME280;54642;59.126;37.876;2024-02-26T06:32:08;100662.75;;;0.51;81.23
67842;BME280;54642;59.126;37.876;2024-02-26T06:34:34;100646.38;;;0.46;81.38
67842;BME280;54642;59.126;37.876;2024-02-26T06:37:00;100621.84;;;0.30;81.08
67842;BME280;54642;59.126;37.876;2024-02-26T06:39:26;100643.09;;;0.49;81.16
67842;BME280;54642;59.126;37.876;2024-02-26T06:41:52;100641.19;;;0.45;81.31
67842;BME280;54642;59.126;37.876;2024-02-26T06:44:25;100657.47;;;0.47;81.30
67842;BME280;54642;59.126;37.876;2024-02-26T06:46:51;100625.09;;;0.46;81.31
67842;BME280;54642;59.126;37.876;2024-02-26T06:49:17;100649.00;;;0.48;81.06
67842;BME280;54642;59.126;37.876;2024-02-26T06:51:43;100646.19;;;0.42;81.11
67842;BME280;54642;59.126;37.876;2024-02-26T06:54:08;100639.53;;;0.45;80.92
67842;BME280;54642;59.126;37.876;2024-02-26T06:56:35;100611.13;;;0.18;80.59
67842;BME280;54642;59.126;37.876;2024-02-26T06:59:00;100637.72;;;0.43;80.97
67842;BME280;54642;59.126;37.876;2024-02-26T07:01:26;100579.94;;;0.24;81.22
67842;BME280;54642;59.126;37.876;2024-02-26T07:03:52;100626.13;;;0.69;80.81
67842;BME280;54642;59.126;37.876;2024-02-26T07:06:18;100627.88;;;0.70;80.60
67842;BME280;54642;59.126;37.876;2024-02-26T07:08:43;100631.69;;;0.80;80.69
67842;BME280;54642;59.126;37.876;2024-02-26T07:11:10;100627.38;;;0.79;80.46
67842;BME280;54642;59.126;37.876;2024-02-26T07:13:36;100623.56;;;0.88;80.49
67842;BME280;54642;59.126;37.876;2024-02-26T07:16:02;100626.31;;;0.93;80.18
67842;BME280;54642;59.126;37.876;2024-02-26T07:18:28;100623.97;;;0.98;79.99
67842;BME280;54642;59.126;37.876;2024-02-26T07:20:53;100616.63;;;1.05;80.51
67842;BME280;54642;59.126;37.876;2024-02-26T07:23:19;100614.63;;;0.98;80.04
67842;BME280;54642;59.126;37.876;2024-02-26T07:25:45;100629.13;;;0.99;79.97
67842;BME280;54642;59.126;37.876;2024-02-26T07:28:12;100619.34;;;0.89;79.83
67842;BME280;54642;59.126;37.876;2024-02-26T07:30:38;100623.91;;;0.96;80.13
67842;BME280;54642;59.126;37.876;2024-02-26T07:33:03;100620.28;;;0.91;80.05
67842;BME280;54642;59.126;37.876;2024-02-26T07:35:29;100624.75;;;0.97;79.94
67842;BME280;54642;59.126;37.876;2024-02-26T07:37:55;100600.41;;;0.84;79.82
67842;BME280;54642;59.126;37.876;2024-02-26T07:40:21;100593.38;;;0.78;79.89
67842;BME280;54642;59.126;37.876;2024-02-26T07:42:47;100599.75;;;0.88;80.00
67842;BME280;54642;59.126;37.876;2024-02-26T07:45:13;100623.75;;;0.93;79.97
67842;BME280;54642;59.126;37.876;2024-02-26T07:47:41;100615.09;;;0.89;79.94
67842;BME280;54642;59.126;37.876;2024-02-26T07:50:07;100619.63;;;0.95;79.79
67842;BME280;54642;59.126;37.876;2024-02-26T07:52:33;100633.16;;;0.94;79.89
67842;BME280;54642;59.126;37.876;2024-02-26T07:54:59;100596.91;;;0.82;80.01
67842;BME280;54642;59.126;37.876;2024-02-26T07:57:25;100634.09;;;0.96;79.67
67842;BME280;54642;59.126;37.876;2024-02-26T07:59:50;100622.56;;;0.85;79.74
67842;BME280;54642;59.126;37.876;2024-02-26T08:02:16;100623.66;;;0.90;79.78
67842;BME280;54642;59.126;37.876;2024-02-26T08:04:42;100566.72;;;0.52;79.70
67842;BME280;54642;59.126;37.876;2024-02-26T08:07:08;100623.25;;;0.81;79.63
67842;BME280;54642;59.126;37.876;2024-02-26T08:09:34;100618.81;;;0.76;79.75
67842;BME280;54642;59.126;37.876;2024-02-26T08:12:00;100620.16;;;0.88;79.80
67842;BME280;54642;59.126;37.876;2024-02-26T08:14:25;100612.53;;;0.89;79.74
67842;BME280;54642;59.126;37.876;2024-02-26T08:16:51;100612.09;;;0.79;79.47
67842;BME280;54642;59.126;37.876;2024-02-26T08:19:17;100600.94;;;0.76;79.55
67842;BME280;54642;59.126;37.876;2024-02-26T08:21:43;100590.03;;;0.60;79.54
67842;BME280;54642;59.126;37.876;2024-02-26T08:24:08;100602.56;;;0.74;79.73
67842;BME280;54642;59.126;37.876;2024-02-26T08:26:35;100611.03;;;0.73;79.69
67842;BME280;54642;59.126;37.876;2024-02-26T08:29:00;100603.56;;;0.78;79.41
67842;BME280;54642;59.126;37.876;2024-02-26T08:31:26;100608.06;;;0.84;79.40
67842;BME280;54642;59.126;37.876;2024-02-26T08:33:53;100607.13;;;0.82;79.36
67842;BME280;54642;59.126;37.876;2024-02-26T08:36:19;100606.97;;;0.79;78.96
67842;BME280;54642;59.126;37.876;2024-02-26T08:38:44;100612.22;;;0.82;79.26
67842;BME280;54642;59.126;37.876;2024-02-26T08:41:10;100566.59;;;0.68;79.21
67842;BME280;54642;59.126;37.876;2024-02-26T08:43:36;100580.88;;;0.84;79.22
67842;BME280;54642;59.126;37.876;2024-02-26T08:46:02;100604.44;;;0.79;79.01
67842;BME280;54642;59.126;37.876;2024-02-26T08:48:28;100594.19;;;0.77;79.09
67842;BME280;54642;59.126;37.876;2024-02-26T08:50:54;100594.03;;;0.74;79.05
67842;BME280;54642;59.126;37.876;2024-02-26T08:53:20;100594.50;;;0.85;79.10
67842;BME280;54642;59.126;37.876;2024-02-26T08:55:46;100595.31;;;0.84;79.10
67842;BME280;54642;59.126;37.876;2024-02-26T08:58:11;100592.09;;;0.88;78.77
67842;BME280;54642;59.126;37.876;2024-02-26T09:00:37;100590.19;;;0.84;78.73
67842;BME280;54642;59.126;37.876;2024-02-26T09:03:03;100574.03;;;0.83;78.81
67842;BME280;54642;59.126;37.876;2024-02-26T09:05:29;100561.22;;;0.62;78.33
67842;BME280;54642;59.126;37.876;2024-02-26T09:07:54;100589.94;;;0.78;78.61
67842;BME280;54642;59.126;37.876;2024-02-26T09:10:20;100589.56;;;0.68;78.71
67842;BME280;54642;59.126;37.876;2024-02-26T09:12:46;100591.50;;;0.74;78.95
67842;BME280;54642;59.126;37.876;2024-02-26T09:15:11;100596.66;;;0.75;78.74
67842;BME280;54642;59.126;37.876;2024-02-26T09:17:38;100589.00;;;0.75;78.80
67842;BME280;54642;59.126;37.876;2024-02-26T09:20:04;100571.09;;;0.74;78.74
67842;BME280;54642;59.126;37.876;2024-02-26T09:22:31;100555.56;;;0.69;78.77
67842;BME280;54642;59.126;37.876;2024-02-26T09:24:57;100589.28;;;0.62;78.41
67842;BME280;54642;59.126;37.876;2024-02-26T09:27:22;100592.63;;;0.42;78.58
67842;BME280;54642;59.126;37.876;2024-02-26T09:29:49;100601.19;;;0.24;79.12
67842;BME280;54642;59.126;37.876;2024-02-26T09:32:15;100590.84;;;0.21;79.30
67842;BME280;54642;59.126;37.876;2024-02-26T09:34:41;100594.75;;;0.13;79.59
67842;BME280;54642;59.126;37.876;2024-02-26T09:37:07;100586.69;;;0.04;79.29
67842;BME280;54642;59.126;37.876;2024-02-26T09:39:32;100582.47;;;0.04;79.42
67842;BME280;54642;59.126;37.876;2024-02-26T09:42:00;100590.78;;;0.00;79.44
67842;BME280;54642;59.126;37.876;2024-02-26T09:44:30;100572.56;;;-0.08;79.59
67842;BME280;54642;59.126;37.876;2024-02-26T09:46:59;100561.94;;;-0.17;79.67
67842;BME280;54642;59.126;37.876;2024-02-26T09:49:25;100537.50;;;-0.31;79.59
67842;BME280;54642;59.126;37.876;2024-02-26T09:51:51;100561.00;;;-0.19;79.70
67842;BME280;54642;59.126;37.876;2024-02-26T09:54:19;100567.72;;;-0.21;79.58
67842;BME280;54642;59.126;37.876;2024-02-26T09:56:47;100552.53;;;-0.18;79.58
67842;BME280;54642;59.126;37.876;2024-02-26T09:59:17;100568.41;;;-0.06;79.90
67842;BME280;54642;59.126;37.876;2024-02-26T10:01:44;100571.06;;;0.15;79.95
67842;BME280;54642;59.126;37.876;2024-02-26T10:04:12;100556.66;;;0.35;79.40
67842;BME280;54642;59.126;37.876;2024-02-26T10:06:39;100563.84;;;0.44;79.35
67842;BME280;54642;59.126;37.876;2024-02-26T10:09:05;100535.00;;;0.45;79.10
67842;BME280;54642;59.126;37.876;2024-02-26T10:11:35;100541.09;;;0.49;79.06
67842;BME280;54642;59.126;37.876;2024-02-26T10:14:01;100524.34;;;0.34;79.06
67842;BME280;54642;59.126;37.876;2024-02-26T10:16:27;100542.50;;;0.62;79.09
67842;BME280;54642;59.126;37.876;2024-02-26T10:18:54;100555.50;;;0.68;78.96
67842;BME280;54642;59.126;37.876;2024-02-26T10:21:20;100497.28;;;0.38;79.00
67842;BME280;54642;59.126;37.876;2024-02-26T10:23:47;100547.25;;;0.73;78.82
67842;BME280;54642;59.126;37.876;2024-02-26T10:26:14;100551.75;;;0.79;78.42
67842;BME280;54642;59.126;37.876;2024-02-26T10:28:45;100552.75;;;0.83;78.52
67842;BME280;54642;59.126;37.876;2024-02-26T10:31:11;100564.81;;;0.87;78.46
67842;BME280;54642;59.126;37.876;2024-02-26T10:33:39;100514.38;;;0.60;78.49
67842;BME280;54642;59.126;37.876;2024-02-26T10:36:06;100524.72;;;0.63;78.55
67842;BME280;54642;59.126;37.876;2024-02-26T10:38:34;100543.97;;;0.76;78.38
67842;BME280;54642;59.126;37.876;2024-02-26T10:41:04;100553.53;;;0.82;78.34
67842;BME280;54642;59.126;37.876;2024-02-26T10:43:30;100543.28;;;0.80;78.30
67842;BME280;54642;59.126;37.876;2024-02-26T10:45:57;100563.47;;;0.95;78.40
67842;BME280;54642;59.126;37.876;2024-02-26T10:48:23;100549.75;;;0.93;78.08
67842;BME280;54642;59.126;37.876;2024-02-26T10:50:49;100555.00;;;0.96;78.20
67842;BME280;54642;59.126;37.876;2024-02-26T10:53:17;100546.16;;;0.88;77.82
67842;BME280;54642;59.126;37.876;2024-02-26T10:55:48;100548.56;;;0.85;77.93
67842;BME280;54642;59.126;37.876;2024-02-26T10:58:16;100552.75;;;0.83;77.97
67842;BME280;54642;59.126;37.876;2024-02-26T11:00:43;100556.97;;;0.82;78.20
67842;BME280;54642;59.126;37.876;2024-02-26T11:03:10;100534.63;;;0.76;78.07
67842;BME280;54642;59.126;37.876;2024-02-26T11:05:36;100544.16;;;0.81;77.80
67842;BME280;54642;59.126;37.876;2024-02-26T11:08:05;100521.47;;;0.67;78.03
67842;BME280;54642;59.126;37.876;2024-02-26T11:10:31;100532.91;;;0.75;78.02
67842;BME280;54642;59.126;37.876;2024-02-26T11:12:59;100554.53;;;0.85;78.15
67842;BME280;54642;59.126;37.876;2024-02-26T11:15:28;100548.75;;;0.89;78.10
67842;BME280;54642;59.126;37.876;2024-02-26T11:17:55;100545.66;;;0.97;77.87
67842;BME280;54642;59.126;37.876;2024-02-26T11:20:23;100546.16;;;0.88;77.97
67842;BME280;54642;59.126;37.876;2024-02-26T11:22:49;100518.75;;;0.84;77.97
67842;BME280;54642;59.126;37.876;2024-02-26T11:25:14;100548.47;;;1.03;77.82
67842;BME280;54642;59.126;37.876;2024-02-26T11:27:46;100543.00;;;0.93;77.75
67842;BME280;54642;59.126;37.876;2024-02-26T11:30:14;100548.41;;;1.01;77.54
67842;BME280;54642;59.126;37.876;2024-02-26T11:32:46;100545.72;;;0.98;77.54
67842;BME280;54642;59.126;37.876;2024-02-26T11:35:14;100533.88;;;1.00;77.58
67842;BME280;54642;59.126;37.876;2024-02-26T11:37:57;100546.06;;;1.06;77.61
67842;BME280;54642;59.126;37.876;2024-02-26T11:40:24;100524.75;;;1.05;77.58
67842;BME280;54642;59.126;37.876;2024-02-26T11:42:51;100523.31;;;1.12;77.49
67842;BME280;54642;59.126;37.876;2024-02-26T11:48:16;100515.28;;;1.03;77.42
67842;BME280;54642;59.126;37.876;2024-02-26T11:50:47;100496.22;;;0.94;77.27
67842;BME280;54642;59.126;37.876;2024-02-26T11:53:24;100530.69;;;1.04;77.36
67842;BME280;54642;59.126;37.876;2024-02-26T11:56:31;100523.25;;;1.10;77.44
67842;BME280;54642;59.126;37.876;2024-02-26T11:59:03;100497.38;;;1.01;77.27
67842;BME280;54642;59.126;37.876;2024-02-26T12:01:43;100520.03;;;1.14;77.41
67842;BME280;54642;59.126;37.876;2024-02-26T12:04:19;100517.28;;;1.10;77.29
67842;BME280;54642;59.126;37.876;2024-02-26T12:06:57;100518.56;;;1.00;77.30
67842;BME280;54642;59.126;37.876;2024-02-26T12:09:35;100539.00;;;1.00;77.43
67842;BME280;54642;59.126;37.876;2024-02-26T12:12:06;100529.41;;;0.94;77.33
67842;BME280;54642;59.126;37.876;2024-02-26T12:14:39;100511.03;;;0.82;77.49
67842;BME280;54642;59.126;37.876;2024-02-26T12:17:22;100520.44;;;0.83;77.59
67842;BME280;54642;59.126;37.876;2024-02-26T12:19:49;100504.06;;;0.78;77.60
67842;BME280;54642;59.126;37.876;2024-02-26T12:22:16;100509.47;;;0.86;77.75
67842;BME280;54642;59.126;37.876;2024-02-26T12:24:45;100508.38;;;0.79;77.64
67842;BME280;54642;59.126;37.876;2024-02-26T12:27:11;100524.06;;;0.88;77.75
67842;BME280;54642;59.126;37.876;2024-02-26T12:29:37;100513.59;;;0.82;77.67
67842;BME280;54642;59.126;37.876;2024-02-26T12:32:04;100521.50;;;0.88;77.50
67842;BME280;54642;59.126;37.876;2024-02-26T12:34:31;100514.22;;;0.76;77.52
67842;BME280;54642;59.126;37.876;2024-02-26T12:36:57;100527.47;;;0.89;77.73
67842;BME280;54642;59.126;37.876;2024-02-26T12:39:23;100504.00;;;0.76;77.63
67842;BME280;54642;59.126;37.876;2024-02-26T12:41:49;100532.19;;;0.80;77.29
67842;BME280;54642;59.126;37.876;2024-02-26T12:44:16;100528.97;;;0.84;77.47
67842;BME280;54642;59.126;37.876;2024-02-26T12:46:42;100519.06;;;0.70;77.49
67842;BME280;54642;59.126;37.876;2024-02-26T12:49:08;100531.28;;;0.78;77.21
67842;BME280;54642;59.126;37.876;2024-02-26T12:51:34;100524.84;;;0.66;77.27